Terminal Aerodrome Forecast
Issued by NWS

Home | Current Version | Previous Version | Text Only | Print | Product List | Glossary On
Versions: 1 2 3 4 5 6 7 8 9 10 11 12
000
FTUS45 KRIW 302330
TAFPNA
TAF
KPNA 302330Z 0100/0124 32016G26KT P6SM BKN050
     FM010100 30010KT P6SM BKN060
     FM010800 29007KT P6SM VCSH OVC035
     FM011600 30010KT P6SM SCT060 BKN150
     FM011900 30018G28KT P6SM SCT060 BKN200
      AMD LTD TO CLD VIS AND WIND=

USA.gov is the U.S. government's official web portal to all federal, state and local government web resources and services.